createdAt,value
2024-01-01T00:01:57.926Z,116.07
2024-01-01T00:04:27.464Z,145.40
2024-01-01T00:06:54.463Z,97.37
2024-01-01T00:09:21.418Z,145.53
2024-01-01T00:11:48.337Z,85.00
2024-01-01T00:14:15.303Z,75.20
2024-01-01T00:16:42.531Z,64.83
2024-01-01T00:19:09.604Z,55.40
2024-01-01T00:21:36.677Z,47.27
2024-01-01T00:24:03.915Z,45.33
2024-01-01T00:26:30.837Z,40.77
2024-01-01T00:29:01.377Z,49.63
2024-01-01T00:31:28.382Z,52.37
2024-01-01T00:33:55.601Z,45.13
2024-01-01T00:36:22.564Z,42.23
2024-01-01T00:38:51.610Z,35.60
2024-01-01T00:41:18.672Z,34.53
2024-01-01T00:43:45.775Z,32.50
2024-01-01T00:46:12.901Z,31.60
2024-01-01T00:48:40.020Z,25.97
2024-01-01T00:51:07.048Z,29.43
2024-01-01T00:53:34.801Z,25.63
2024-01-01T00:56:01.893Z,29.33
2024-01-01T00:58:28.909Z,18.90
2024-01-01T01:00:57.505Z,26.50
2024-01-01T01:03:24.765Z,25.30
2024-01-01T01:05:52.087Z,23.43
2024-01-01T01:08:19.286Z,26.60
2024-01-01T01:10:46.740Z,26.73
2024-01-01T01:13:13.756Z,25.13
2024-01-01T01:15:40.997Z,28.10
2024-01-01T01:18:08.803Z,27.77
2024-01-01T01:20:35.990Z,21.90
2024-01-01T01:23:02.934Z,20.87
2024-01-01T01:25:30.328Z,17.93
2024-01-01T01:27:57.408Z,20.73
2024-01-01T01:30:24.485Z,24.80
2024-01-01T01:32:51.564Z,34.87
2024-01-01T01:35:18.521Z,25.13
2024-01-01T01:37:45.791Z,19.70
2024-01-01T01:40:13.056Z,16.90
2024-01-01T01:42:40.000Z,18.53
2024-01-01T01:45:07.661Z,17.00
2024-01-01T01:47:34.757Z,21.23
2024-01-01T01:50:01.820Z,18.07
2024-01-01T01:52:28.892Z,18.20
2024-01-01T01:54:56.866Z,24.37
2024-01-01T01:57:24.818Z,22.00
2024-01-01T01:59:52.053Z,20.43
2024-01-01T02:02:23.883Z,23.60
2024-01-01T02:04:54.168Z,26.50
2024-01-01T02:07:22.176Z,18.70
2024-01-01T02:09:49.216Z,17.77
2024-01-01T02:12:16.111Z,21.43
2024-01-01T02:14:43.060Z,22.93
2024-01-01T02:17:10.017Z,21.60
2024-01-01T02:19:39.037Z,20.17
2024-01-01T02:22:06.154Z,23.43
2024-01-01T02:24:33.209Z,27.97
2024-01-01T02:27:00.271Z,27.60
2024-01-01T02:29:27.767Z,20.97
2024-01-01T02:31:54.789Z,23.27
2024-01-01T02:34:23.181Z,19.00
2024-01-01T02:36:50.109Z,16.63
2024-01-01T02:39:17.040Z,25.97
2024-01-01T02:41:43.972Z,23.17
2024-01-01T02:44:11.033Z,19.13
2024-01-01T02:46:38.169Z,22.50
2024-01-01T02:49:05.123Z,24.53
2024-01-01T02:51:32.036Z,27.00
2024-01-01T02:53:59.426Z,19.00
2024-01-01T02:56:26.448Z,24.67
2024-01-01T02:58:55.108Z,24.27
2024-01-01T03:01:22.192Z,25.83
2024-01-01T03:03:49.959Z,27.40
2024-01-01T03:06:20.623Z,23.73
2024-01-01T03:08:48.338Z,26.80
2024-01-01T03:11:15.844Z,27.40
2024-01-01T03:13:43.217Z,23.57
2024-01-01T03:16:10.172Z,25.10
2024-01-01T03:18:37.346Z,24.63
2024-01-01T03:21:04.907Z,25.30
2024-01-01T03:23:32.025Z,31.67
2024-01-01T03:25:59.139Z,34.13
2024-01-01T03:28:26.170Z,24.60
2024-01-01T03:30:53.328Z,29.57
2024-01-01T03:33:20.497Z,26.73
2024-01-01T03:35:47.536Z,29.20
2024-01-01T03:38:14.463Z,30.37
2024-01-01T03:40:41.809Z,36.13
2024-01-01T03:43:08.920Z,27.60
2024-01-01T03:45:36.728Z,28.43
2024-01-01T03:48:04.383Z,27.73
2024-01-01T03:50:31.493Z,28.33
2024-01-01T03:52:58.528Z,33.37
2024-01-01T03:55:25.656Z,31.40
2024-01-01T03:57:52.590Z,29.90
2024-01-01T04:00:19.600Z,32.33
2024-01-01T04:02:47.865Z,28.50
2024-01-01T04:05:15.051Z,27.33
2024-01-01T04:07:42.244Z,38.27
2024-01-01T04:10:10.643Z,33.10
2024-01-01T04:12:38.399Z,32.73
2024-01-01T04:15:06.235Z,28.17
2024-01-01T04:17:34.210Z,29.10
2024-01-01T04:20:01.288Z,26.67
2024-01-01T04:22:29.472Z,29.40
2024-01-01T04:24:56.422Z,29.27
2024-01-01T04:27:23.353Z,27.60
2024-01-01T04:29:50.253Z,28.67
2024-01-01T04:32:17.276Z,28.43
2024-01-01T04:34:44.301Z,29.37
2024-01-01T04:37:11.243Z,29.73
2024-01-01T04:39:38.143Z,28.10
2024-01-01T04:42:05.344Z,23.80
2024-01-01T04:44:32.329Z,38.03
2024-01-01T04:46:59.453Z,30.87
2024-01-01T04:49:26.440Z,27.77
2024-01-01T04:51:53.433Z,27.77
2024-01-01T04:54:20.590Z,31.77
2024-01-01T04:56:47.576Z,29.00
2024-01-01T04:59:14.690Z,24.80
2024-01-01T05:01:41.830Z,36.07
2024-01-01T05:04:08.849Z,26.37
2024-01-01T05:06:35.793Z,32.03
2024-01-01T05:09:02.722Z,25.80
2024-01-01T05:11:31.023Z,27.50
2024-01-01T05:13:58.037Z,31.43
2024-01-01T05:16:25.045Z,26.00
2024-01-01T05:18:52.081Z,31.00
2024-01-01T05:21:19.035Z,26.57
2024-01-01T05:23:45.937Z,29.87
2024-01-01T05:26:12.976Z,29.57
2024-01-01T05:28:39.970Z,24.73
2024-01-01T05:31:07.018Z,26.07
2024-01-01T05:33:34.313Z,27.37
2024-01-01T05:36:01.264Z,28.47
2024-01-01T05:38:28.247Z,25.00
2024-01-01T05:40:55.232Z,29.63
2024-01-01T05:43:25.438Z,28.83
2024-01-01T05:45:52.357Z,28.27
2024-01-01T05:48:26.468Z,23.40
2024-01-01T05:50:57.046Z,30.20
2024-01-01T05:53:23.983Z,37.83
2024-01-01T05:55:51.256Z,22.97
2024-01-01T05:58:18.404Z,26.60
2024-01-01T06:00:46.119Z,24.93
2024-01-01T06:03:13.179Z,22.27
2024-01-01T06:05:40.262Z,29.90
2024-01-01T06:08:07.645Z,21.83
2024-01-01T06:10:35.733Z,21.63
2024-01-01T06:13:03.727Z,24.20
2024-01-01T06:15:30.802Z,25.53
2024-01-01T06:17:58.000Z,22.40
2024-01-01T06:20:25.157Z,22.83
2024-01-01T06:22:52.122Z,27.50
2024-01-01T06:25:19.299Z,28.60
2024-01-01T06:27:46.358Z,32.33
2024-01-01T06:30:13.419Z,18.67
2024-01-01T06:32:40.490Z,19.90
2024-01-01T06:35:07.804Z,25.80
2024-01-01T06:37:34.918Z,18.67
2024-01-01T06:40:02.260Z,17.97
2024-01-01T06:42:29.149Z,21.63
2024-01-01T06:45:01.343Z,23.13
2024-01-01T06:47:28.564Z,22.97
2024-01-01T06:49:56.001Z,19.00
2024-01-01T06:52:23.050Z,22.80
2024-01-01T06:54:49.944Z,24.80
2024-01-01T06:57:16.843Z,19.20
2024-01-01T06:59:43.847Z,20.67
2024-01-01T07:02:10.862Z,25.00
2024-01-01T07:04:37.956Z,23.23
2024-01-01T07:07:05.044Z,30.30
2024-01-01T07:09:32.222Z,25.17
2024-01-01T07:11:59.234Z,22.20
2024-01-01T07:14:26.353Z,25.50
2024-01-01T07:16:54.967Z,25.20
2024-01-01T07:19:22.318Z,24.90
2024-01-01T07:21:49.915Z,17.53
2024-01-01T07:24:16.870Z,29.50
2024-01-01T07:26:43.813Z,23.50
2024-01-01T07:29:10.750Z,24.27
2024-01-01T07:31:37.765Z,26.87
2024-01-01T07:34:04.966Z,24.07
2024-01-01T07:36:31.935Z,21.53
2024-01-01T07:38:58.829Z,24.30
2024-01-01T07:41:25.765Z,20.77
2024-01-01T07:43:52.879Z,27.50
2024-01-01T07:46:20.687Z,22.10
2024-01-01T07:48:47.677Z,35.43
2024-01-01T07:51:14.764Z,22.73
2024-01-01T07:53:43.486Z,27.30
2024-01-01T07:56:10.539Z,23.07
2024-01-01T07:58:37.784Z,25.57
2024-01-01T08:01:04.981Z,25.67
2024-01-01T08:03:32.007Z,24.27
2024-01-01T08:05:59.144Z,34.23
2024-01-01T08:08:26.257Z,26.90
2024-01-01T08:10:54.556Z,26.33
2024-01-01T08:13:21.625Z,28.70
2024-01-01T08:15:48.612Z,29.37
2024-01-01T08:18:15.633Z,26.23
2024-01-01T08:20:42.672Z,34.37
2024-01-01T08:23:09.664Z,32.87
2024-01-01T08:25:36.940Z,26.87
2024-01-01T08:28:04.514Z,28.27
2024-01-01T08:30:31.908Z,31.13
2024-01-01T08:32:59.672Z,29.10
2024-01-01T08:35:26.645Z,29.30
2024-01-01T08:37:54.322Z,27.13
2024-01-01T08:40:21.265Z,24.03
2024-01-01T08:42:48.575Z,27.63
2024-01-01T08:45:17.237Z,25.00
2024-01-01T08:47:44.154Z,27.60
2024-01-01T08:50:11.495Z,31.20
2024-01-01T08:52:38.499Z,28.63
2024-01-01T08:55:06.310Z,27.03
2024-01-01T08:57:33.252Z,31.03
2024-01-01T09:00:00.225Z,25.10
2024-01-01T09:02:27.206Z,29.80
2024-01-01T09:04:54.258Z,29.33
2024-01-01T09:07:21.944Z,32.03
2024-01-01T09:09:48.874Z,35.30
2024-01-01T09:12:15.799Z,25.37
2024-01-01T09:14:42.818Z,26.23
2024-01-01T09:17:09.883Z,23.07
2024-01-01T09:19:38.727Z,28.40
2024-01-01T09:22:05.795Z,29.67
2024-01-01T09:24:32.782Z,29.47
2024-01-01T09:27:00.314Z,28.70
2024-01-01T09:29:27.422Z,27.70
2024-01-01T09:31:54.488Z,24.77
2024-01-01T09:34:21.429Z,27.97
2024-01-01T09:36:57.287Z,26.57
2024-01-01T09:39:30.109Z,37.70
2024-01-01T09:41:57.020Z,29.70
2024-01-01T09:44:24.318Z,28.00
2024-01-01T09:46:51.349Z,28.40
2024-01-01T09:49:18.372Z,24.80
2024-01-01T09:51:45.363Z,29.37
2024-01-01T09:54:12.308Z,26.63
2024-01-01T09:56:39.224Z,25.33
2024-01-01T09:59:06.198Z,26.17
2024-01-01T10:01:34.358Z,24.27
2024-01-01T10:04:08.564Z,29.67
2024-01-01T10:06:37.627Z,26.13
2024-01-01T10:09:12.000Z,23.30
2024-01-01T10:11:42.242Z,21.17
2024-01-01T10:14:11.008Z,25.03
2024-01-01T10:16:39.509Z,26.97
2024-01-01T10:19:07.851Z,20.37
2024-01-01T10:21:36.863Z,24.30
2024-01-01T10:24:26.643Z,19.17
2024-01-01T10:27:02.135Z,21.10
2024-01-01T10:29:29.790Z,32.40
2024-01-01T10:31:57.104Z,27.63
2024-01-01T10:34:24.847Z,25.60
2024-01-01T10:36:52.194Z,22.27
2024-01-01T10:39:20.019Z,22.33
2024-01-01T10:41:50.378Z,19.23
2024-01-01T10:44:17.397Z,20.60
2024-01-01T10:46:48.446Z,21.07
2024-01-01T10:49:25.098Z,24.50
2024-01-01T10:52:26.677Z,27.47
2024-01-01T10:55:41.867Z,20.90
2024-01-01T10:58:44.742Z,18.37
2024-01-01T11:01:16.524Z,20.13
2024-01-01T11:03:49.154Z,15.07
2024-01-01T11:06:33.233Z,24.57
2024-01-01T11:09:22.288Z,23.77
2024-01-01T11:11:56.691Z,18.63
2024-01-01T11:14:43.251Z,19.40
2024-01-01T11:17:12.040Z,18.87
2024-01-01T11:19:44.458Z,20.10
2024-01-01T11:22:30.863Z,20.30
2024-01-01T11:25:01.753Z,21.07
2024-01-01T11:27:35.446Z,20.90
2024-01-01T11:30:08.138Z,18.80
2024-01-01T11:32:39.208Z,20.63
2024-01-01T11:35:19.104Z,42.67
2024-01-01T11:37:47.230Z,22.13
2024-01-01T11:40:14.655Z,37.60
2024-01-01T11:42:42.603Z,20.20
2024-01-01T11:45:11.550Z,23.13
2024-01-01T11:47:40.165Z,17.53
2024-01-01T11:50:09.254Z,21.93
2024-01-01T11:52:36.632Z,19.73
2024-01-01T11:55:04.018Z,17.93
2024-01-01T11:57:31.296Z,18.57
2024-01-01T11:59:58.425Z,23.07
2024-01-01T12:02:26.034Z,23.57
2024-01-01T12:04:55.469Z,19.93
2024-01-01T12:07:34.063Z,20.57
2024-01-01T12:10:04.415Z,28.60
2024-01-01T12:12:31.364Z,21.90
2024-01-01T12:15:18.180Z,20.70
2024-01-01T12:17:46.712Z,22.33
2024-01-01T12:20:19.955Z,15.93
2024-01-01T12:22:49.794Z,15.67
2024-01-01T12:25:19.890Z,20.03
2024-01-01T12:28:04.111Z,20.97
2024-01-01T12:30:31.645Z,17.60
2024-01-01T12:32:59.134Z,17.77
2024-01-01T12:35:26.573Z,22.97
2024-01-01T12:37:54.020Z,18.03
2024-01-01T12:40:21.372Z,16.73
2024-01-01T12:42:48.610Z,18.60
2024-01-01T12:45:15.656Z,32.27
2024-01-01T12:47:43.114Z,32.20
2024-01-01T12:50:10.983Z,25.63
2024-01-01T12:52:39.559Z,18.20
2024-01-01T12:55:06.929Z,16.97
2024-01-01T12:57:34.003Z,15.40
2024-01-01T13:00:01.413Z,15.30
2024-01-01T13:02:28.393Z,19.77
2024-01-01T13:04:55.472Z,18.07
2024-01-01T13:07:23.069Z,22.03
2024-01-01T13:09:50.065Z,14.27
2024-01-01T13:12:17.994Z,16.10
2024-01-01T13:14:45.156Z,14.57
2024-01-01T13:17:13.107Z,18.60
2024-01-01T13:19:40.385Z,17.80
2024-01-01T13:22:09.089Z,17.30
2024-01-01T13:24:37.105Z,19.73
2024-01-01T13:27:04.320Z,16.00
2024-01-01T13:29:31.725Z,18.83
2024-01-01T13:31:58.889Z,15.63
2024-01-01T13:34:26.031Z,15.10
2024-01-01T13:36:53.099Z,18.40
2024-01-01T13:39:20.134Z,29.00
2024-01-01T13:41:47.739Z,15.60
2024-01-01T13:44:14.854Z,15.30
2024-01-01T13:46:41.948Z,17.20
2024-01-01T13:49:09.000Z,14.00
2024-01-01T13:51:36.023Z,15.47
2024-01-01T13:54:02.947Z,22.87
2024-01-01T13:56:29.911Z,16.50
2024-01-01T13:58:56.853Z,12.60
2024-01-01T14:01:23.852Z,13.80
2024-01-01T14:03:51.240Z,17.60
2024-01-01T14:06:18.251Z,14.87
2024-01-01T14:08:45.187Z,18.30
2024-01-01T14:11:12.164Z,17.33
2024-01-01T14:13:39.085Z,17.80
2024-01-01T14:16:06.245Z,20.57
2024-01-01T14:18:33.344Z,19.90
2024-01-01T14:21:00.304Z,21.03
2024-01-01T14:23:27.246Z,17.50
2024-01-01T14:25:54.287Z,17.50
2024-01-01T14:28:21.251Z,14.63
2024-01-01T14:30:52.742Z,20.20
2024-01-01T14:33:21.058Z,14.67
2024-01-01T14:35:48.195Z,20.90
2024-01-01T14:38:15.229Z,23.03
2024-01-01T14:40:43.983Z,19.47
2024-01-01T14:43:11.220Z,21.73
2024-01-01T14:45:38.130Z,18.90
2024-01-01T14:48:05.569Z,15.40
2024-01-01T14:50:39.508Z,13.17
2024-01-01T14:53:07.706Z,11.50
2024-01-01T14:55:36.510Z,13.33
2024-01-01T14:58:03.528Z,12.03
2024-01-01T15:00:31.105Z,16.20
2024-01-01T15:02:58.306Z,23.00
2024-01-01T15:05:27.082Z,21.80
2024-01-01T15:07:54.129Z,17.97
2024-01-01T15:10:21.230Z,16.60
2024-01-01T15:12:48.145Z,14.47
2024-01-01T15:15:15.314Z,20.60
2024-01-01T15:17:42.627Z,16.60
2024-01-01T15:20:11.170Z,16.20
2024-01-01T15:22:38.104Z,12.60
2024-01-01T15:25:05.698Z,16.50
2024-01-01T15:27:32.592Z,14.77
2024-01-01T15:29:59.600Z,20.03
2024-01-01T15:32:26.506Z,16.30
2024-01-01T15:34:53.457Z,18.10
2024-01-01T15:37:20.839Z,19.73
2024-01-01T15:39:47.748Z,19.33
2024-01-01T15:42:14.672Z,12.27
2024-01-01T15:44:41.574Z,17.70
2024-01-01T15:47:08.515Z,16.37
2024-01-01T15:49:36.014Z,19.93
2024-01-01T15:52:07.605Z,19.63
2024-01-01T15:54:38.625Z,14.30
2024-01-01T15:57:06.230Z,16.63
2024-01-01T15:59:33.465Z,16.03
2024-01-01T16:02:00.423Z,17.93
2024-01-01T16:04:27.410Z,12.47
2024-01-01T16:06:54.368Z,18.63
2024-01-01T16:09:21.861Z,16.57
2024-01-01T16:11:48.828Z,16.57
2024-01-01T16:14:15.880Z,13.77
2024-01-01T16:16:42.823Z,16.67
2024-01-01T16:19:17.414Z,12.73
2024-01-01T16:21:52.574Z,17.50
2024-01-01T16:24:19.533Z,17.70
2024-01-01T16:26:47.424Z,17.47
2024-01-01T16:29:17.035Z,14.20
2024-01-01T16:31:44.777Z,11.50
2024-01-01T16:34:12.030Z,13.67
2024-01-01T16:36:38.946Z,18.60
2024-01-01T16:39:05.879Z,16.20
2024-01-01T16:41:32.844Z,19.30
2024-01-01T16:43:59.818Z,11.73
2024-01-01T16:46:26.725Z,12.97
2024-01-01T16:48:53.721Z,20.13
2024-01-01T16:51:20.653Z,24.67
2024-01-01T16:53:47.659Z,19.20
2024-01-01T16:56:14.568Z,13.50
2024-01-01T16:58:41.476Z,12.17
2024-01-01T17:01:08.405Z,13.40
2024-01-01T17:03:35.460Z,19.60
2024-01-01T17:06:02.592Z,17.43
2024-01-01T17:08:31.107Z,14.97
2024-01-01T17:10:58.082Z,11.60
2024-01-01T17:13:25.750Z,13.10
2024-01-01T17:15:52.673Z,13.33
2024-01-01T17:18:19.757Z,16.03
2024-01-01T17:20:46.704Z,13.70
2024-01-01T17:23:13.919Z,13.70
2024-01-01T17:25:41.038Z,17.90
2024-01-01T17:28:07.937Z,17.10
2024-01-01T17:30:34.905Z,12.67
2024-01-01T17:33:02.470Z,13.90
2024-01-01T17:35:29.837Z,10.60
2024-01-01T17:37:57.010Z,13.60
2024-01-01T17:40:24.458Z,14.50
2024-01-01T17:42:51.401Z,14.30
2024-01-01T17:45:18.381Z,14.57
2024-01-01T17:47:45.378Z,11.37
2024-01-01T17:50:12.651Z,14.33
2024-01-01T17:52:39.580Z,10.30
2024-01-01T17:55:08.198Z,10.70
2024-01-01T17:57:35.098Z,12.00
2024-01-01T18:00:02.067Z,11.13
2024-01-01T18:02:29.129Z,11.80
2024-01-01T18:04:56.327Z,14.40
2024-01-01T18:07:23.702Z,10.10
2024-01-01T18:09:50.656Z,14.00
2024-01-01T18:12:17.630Z,11.73
2024-01-01T18:14:44.588Z,9.30
2024-01-01T18:17:11.593Z,7.00
2024-01-01T18:19:38.538Z,13.20
2024-01-01T18:22:05.507Z,10.57
2024-01-01T18:24:33.923Z,10.40
2024-01-01T18:27:00.848Z,11.60
2024-01-01T18:29:27.914Z,11.23
2024-01-01T18:31:54.958Z,11.27
2024-01-01T18:34:21.925Z,11.97
2024-01-01T18:36:48.866Z,9.40
2024-01-01T18:39:15.800Z,9.60
2024-01-01T18:41:43.923Z,10.50
2024-01-01T18:44:12.472Z,10.23
2024-01-01T18:46:40.041Z,12.30
2024-01-01T18:49:07.615Z,11.90
2024-01-01T18:51:34.907Z,10.83
2024-01-01T18:54:01.929Z,11.50
2024-01-01T18:56:28.934Z,10.07
2024-01-01T18:58:55.938Z,13.17
2024-01-01T19:01:22.852Z,13.23
2024-01-01T19:03:49.847Z,14.77
2024-01-01T19:06:18.453Z,12.20
2024-01-01T19:08:46.321Z,13.43
2024-01-01T19:11:14.008Z,8.47
2024-01-01T19:13:41.285Z,10.63
2024-01-01T19:16:14.769Z,7.83
2024-01-01T19:18:43.892Z,18.33
2024-01-01T19:21:10.950Z,13.23
2024-01-01T19:23:43.923Z,12.93
2024-01-01T19:26:10.858Z,9.80
2024-01-01T19:28:38.436Z,19.60
2024-01-01T19:31:05.405Z,10.73
2024-01-01T19:33:32.386Z,9.50
2024-01-01T19:35:59.649Z,11.77
2024-01-01T19:38:27.288Z,12.27
2024-01-01T19:40:54.678Z,8.90
2024-01-01T19:43:21.674Z,10.90
2024-01-01T19:45:48.591Z,9.00
2024-01-01T19:48:15.549Z,11.47
2024-01-01T19:50:42.519Z,11.60
2024-01-01T19:53:20.471Z,9.53
2024-01-01T19:55:54.919Z,13.27
2024-01-01T19:58:24.145Z,8.20
2024-01-01T20:00:51.397Z,8.30
2024-01-01T20:03:18.442Z,10.47
2024-01-01T20:05:45.432Z,11.30
2024-01-01T20:08:12.443Z,11.73
2024-01-01T20:10:39.370Z,8.93
2024-01-01T20:13:06.841Z,8.00
2024-01-01T20:15:33.955Z,13.80
2024-01-01T20:18:01.905Z,13.33
2024-01-01T20:20:28.962Z,9.33
2024-01-01T20:22:56.217Z,9.90
2024-01-01T20:25:23.194Z,10.20
2024-01-01T20:27:50.166Z,9.73
2024-01-01T20:30:17.168Z,10.10
2024-01-01T20:32:44.268Z,13.00
2024-01-01T20:35:11.421Z,9.60
2024-01-01T20:37:39.637Z,9.00
2024-01-01T20:40:07.321Z,9.40
2024-01-01T20:42:36.114Z,15.07
2024-01-01T20:45:04.210Z,15.57
2024-01-01T20:47:31.490Z,8.00
2024-01-01T20:49:58.502Z,11.53
2024-01-01T20:52:28.276Z,10.20
2024-01-01T20:54:57.277Z,11.97
2024-01-01T20:57:24.679Z,10.20
2024-01-01T20:59:51.889Z,8.70
2024-01-01T21:02:19.420Z,11.37
2024-01-01T21:04:46.687Z,9.27
2024-01-01T21:07:14.306Z,5.70
2024-01-01T21:09:42.160Z,7.80
2024-01-01T21:12:09.298Z,9.50
2024-01-01T21:14:36.561Z,9.20
2024-01-01T21:17:03.646Z,6.87
2024-01-01T21:19:30.678Z,11.07
2024-01-01T21:21:57.608Z,11.40
2024-01-01T21:24:24.515Z,10.17
2024-01-01T21:26:51.422Z,9.63
2024-01-01T21:29:18.357Z,7.87
2024-01-01T21:31:45.974Z,16.37
2024-01-01T21:34:12.924Z,8.40
2024-01-01T21:36:39.995Z,6.47
2024-01-01T21:39:08.043Z,7.80
2024-01-01T21:41:35.540Z,7.10
2024-01-01T21:44:04.177Z,7.77
2024-01-01T21:46:31.180Z,11.47
2024-01-01T21:48:58.277Z,11.03
2024-01-01T21:51:25.247Z,9.60
2024-01-01T21:53:52.118Z,9.00
2024-01-01T21:56:21.154Z,9.80
2024-01-01T21:58:49.716Z,8.03
2024-01-01T22:01:16.635Z,7.83
2024-01-01T22:03:43.582Z,13.90
2024-01-01T22:06:10.661Z,7.50
2024-01-01T22:08:39.041Z,10.90
2024-01-01T22:11:06.226Z,7.43
2024-01-01T22:13:33.129Z,8.83
2024-01-01T22:16:00.036Z,11.20
2024-01-01T22:18:27.080Z,7.07
2024-01-01T22:20:54.051Z,9.17
2024-01-01T22:23:21.064Z,7.60
2024-01-01T22:25:48.087Z,8.30
2024-01-01T22:28:15.002Z,16.73
2024-01-01T22:30:41.950Z,8.63
2024-01-01T22:33:09.212Z,8.50
2024-01-01T22:35:36.409Z,13.93
2024-01-01T22:38:03.486Z,14.13
2024-01-01T22:40:30.536Z,11.10
2024-01-01T22:42:57.730Z,7.37
2024-01-01T22:45:24.776Z,6.67
2024-01-01T22:47:53.395Z,7.50
2024-01-01T22:50:20.742Z,12.03
2024-01-01T22:52:47.781Z,6.17
2024-01-01T22:55:14.726Z,16.20
2024-01-01T22:57:41.611Z,12.30
2024-01-01T23:00:21.065Z,7.07
2024-01-01T23:02:48.809Z,8.70
2024-01-01T23:05:19.790Z,7.93
2024-01-01T23:07:47.806Z,10.90
2024-01-01T23:10:21.785Z,9.57
2024-01-01T23:12:49.412Z,8.17
2024-01-01T23:15:16.631Z,7.40
2024-01-01T23:17:43.731Z,10.17
2024-01-01T23:20:11.368Z,9.03
2024-01-01T23:22:38.761Z,10.10
2024-01-01T23:25:06.216Z,9.83
2024-01-01T23:27:33.111Z,7.90
2024-01-01T23:30:00.057Z,10.17
2024-01-01T23:32:27.138Z,15.17
2024-01-01T23:34:54.389Z,8.63
2024-01-01T23:37:21.495Z,8.70
2024-01-01T23:39:48.397Z,9.30
2024-01-01T23:42:15.302Z,8.50
2024-01-01T23:44:42.206Z,7.83
2024-01-01T23:47:09.150Z,7.47
2024-01-01T23:49:36.204Z,7.57
2024-01-01T23:52:03.322Z,10.70
2024-01-01T23:54:30.238Z,9.30
2024-01-01T23:56:57.145Z,8.90
2024-01-01T23:59:24.832Z,11.80
